Mayfield Heights, OH (44124)

6:03 PM EST on February 14, 2016 (GMT -0500)
Cleveland East Side | | Change Station
CLOSE
Current Station
Personal Weather Station
Location: Cleveland, OH
Elevation: 0 ft
Nearby Weather Stations

Elev 0 ft 41.51 °N, 81.64 °W | Updated 24 seconds ago

Clear
Clear
18.0 °F
Feels Like 18 °F
N
2.7
Wind Variable Wind from SSE

Today
High -- | Low -- °F
--% Chance of Precip.
Yesterday
High -- | Low -- °F
Precip. -- in
Pressure 30.36 in
Visibility 10.0 miles
Clouds Clear
Windchill 18 °F
Dew Point 5 °F
Humidity 57%
Rainfall 0.00 in
Snow Depth Not available.
7:23 AM 5:58 PM
Waxing Crescent, 46% visible
METAR KBKL 142253Z AUTO 14008KT 10SM CLR M07/M17 A3033 RMK AO2 SLP280 T10721172
Pressure 30.36 in
Visibility 10.0 miles
Clouds Clear
Windchill 18 °F
Dew Point 5 °F
Humidity 57%
Rainfall 0.00 in
Snow Depth Not available.
7:23 AM 5:58 PM
Waxing Crescent, 46% visible
METAR KBKL 142253Z AUTO 14008KT 10SM CLR M07/M17 A3033 RMK AO2 SLP280 T10721172

10-Day Weather Forecast

Almanac

Astronomy

Feb. 14, 2016 Rise Set
Actual Time
Civil Twilight
Nautical Twilight
Astronomical Twilight
Moon
Length of Visible Light
Length of Day
Tomorrow will be .
, % of the Moon is Illuminated

Today's Extremes

State Highs State Lows

Community

WunderPhotos

Upload Photos

1,892,909 photos uploaded!

WunderBlog® & News

Nearby

Air Quality

  Air Quality AQ Index Pollutant
Not available.

Snow Depth

Station Depth Elevation

Earthquake Activity

City Distance Mag. Time & Date
Minimum magnitude displayed is 2.5.

Coastal Water Temperatures

Place Temperature

Stations

Nearby Weather Stations

Station Location Temp. Windchill Dew Point Humidity Wind Precip. Elev Updated Type
                   

Watches & Warnings

There are currently no watches in effect.